• Join FlightAware (Why Join?)
  • Login
  • US Flag 
07:04PM EST


 

Airport Tracker/Info


-or-


 

Live Flight TrackerFlight Track Log ✈ JBU56 ✈ 14-Apr-2014 ✈ KIAD - KBOS

Flight Track Log - Related Links

Times and Time Zones

All times are in EDT time to prevent confusion due to time zone crossing. See the JBU56 flight status page for this flight to view local times or setup timezone preferences in your user account.

Time Position Orientation Groundspeed Altitude Reporting Facility
EDT Latitude Longitude Course Direction KTS MPH feet Rate Location/Type
08:41AM 38.9500 -77.5000 57° Northeast 165 190 1,200  Level Potomac TRACON
08:42AM 38.9833 -77.5500 311° West 221 254 2,600 1,980 Climbing Potomac TRACON
08:43AM 39.0500 -77.6000 330° Northwest 296 341 5,100 2,940 Climbing Potomac TRACON
08:44AM 39.1333 -77.5667 17° North 323 372 8,500 2,400 Climbing Potomac TRACON
08:45AM 39.0339 -76.9297 78° East  Level FlightAware Approximate
08:45AM 39.1500 -77.4500 80° East 336 387 10,000  Level Potomac TRACON
08:46AM 39.0566 -76.7940 78° East  Level FlightAware Approximate
08:47AM 39.0709 -76.6581 57° Northeast  Level FlightAware Approximate
08:47AM 39.1406 -77.2172 93° East 360 414 10,500  Level Washington Center
08:48AM 39.1008 -77.0956 113° Southeast 364 419 12,900 2,460 Climbing Washington Center
08:49AM 39.0894 -76.9633 96° East 388 447 15,700 2,340 Climbing Washington Center
08:50AM 39.1028 -76.8236 83° East 390 449 17,900 2,100 Climbing Washington Center
08:51AM 39.1139 -76.6778 84° East 406 467 20,000 2,100 Climbing Washington Center
08:53AM 39.1300 -76.4972 83° East 421 484 22,300 1,380 Climbing Washington Center
08:54AM 39.1425 -76.3406 84° East 436 502 23,000 300 Climbing Washington Center
08:55AM 39.1553 -76.1817 84° East 444 511 23,000 300 Level Washington Center
08:56AM 39.1742 -76.0314 81° East 445 512 23,700 960 Climbing Washington Center
08:57AM 39.2050 -75.8742 76° East 462 532 25,100 1,560 Climbing Washington Center
08:58AM 39.3153 -75.7228 47° Northeast 472 543 27,100 1,620 Climbing Washington Center
08:59AM 39.4086 -75.6019 45° Northeast 474 545 28,500 1,500 Climbing Washington Center
09:00AM 39.5083 -75.4725 45° Northeast 475 547 30,200 1,200 Climbing Washington Center
09:01AM 39.5994 -75.3525 45° Northeast 470 541 31,000 360 Climbing Washington Center
09:02AM 39.7000 -75.2128 47° Northeast 493 567 31,000  Level Washington Center
09:03AM 39.7931 -75.0828 47° Northeast 495 570 31,000  Level Washington Center
09:04AM 39.8919 -74.9419 48° Northeast 493 567 31,000  Level Washington Center
09:05AM 39.9850 -74.8094 47° Northeast 495 570 31,000  Level Washington Center
09:06AM 40.0844 -74.6672 48° Northeast 494 568 31,000  Level Washington Center
09:07AM 40.1767 -74.5342 48° Northeast 493 567 31,000  Level Washington Center
09:08AM 40.2772 -74.4194 41° Northeast 486 559 31,000  Level Washington Center
09:09AM 40.3967 -74.2864 40° Northeast 482 555 31,000  Level New York Center
09:10AM 40.5003 -74.1717 40° Northeast 487 560 31,000  Level New York Center
09:11AM 40.5731 -74.0225 57° Northeast 482 555 31,000  Level New York Center
09:13AM 40.6858 -73.6933 66° East 498 573 31,000 -720 Level Washington Center
09:14AM 40.7750 -73.5628 48° Northeast 483 556 28,900 -2,100 Descending Washington Center
09:15AM 40.8617 -73.4364 48° Northeast 470 541 26,700 -1,860 Descending Washington Center
09:16AM 40.9469 -73.3114 48° Northeast 454 522 25,100 -1,620 Descending Boston Center
09:17AM 41.0478 -73.1639 48° Northeast 455 524 23,300 -1,080 Descending Boston Center
09:18AM 41.1183 -73.0319 55° Northeast 446 513 23,000 -180 Descending Boston Center
09:19AM 41.1739 -72.8828 64° Northeast 447 514 23,000  Level Boston Center
09:20AM 41.2303 -72.7383 63° Northeast 447 514 23,000  Level Boston Center
09:21AM 41.2903 -72.5825 63° Northeast 447 514 23,000  Level Boston Center
09:22AM 41.3450 -72.4372 63° Northeast 443 510 23,000  Level Boston Center
09:23AM 41.4028 -72.2917 62° Northeast 443 510 23,000  Level Boston Center
09:25AM 41.4603 -72.1461 62° Northeast 444 511 23,000  Level Boston Center
09:26AM 41.5175 -72.0000 62° Northeast 444 511 23,000 -180 Level Boston Center
09:27AM 41.5681 -71.8681 63° Northeast 442 509 22,700 -1,500 Descending Boston Center
09:28AM 41.6347 -71.6992 62° Northeast 431 496 20,000 -2,460 Descending Boston Center
09:29AM 41.6867 -71.5619 63° Northeast 416 479 17,700 -2,220 Descending Boston Center
09:30AM 41.7414 -71.4219 62° Northeast 397 457 15,600 -2,040 Descending Boston Center
09:31AM 41.7892 -71.2978 63° Northeast 379 436 13,600 -1,920 Descending Boston Center
09:32AM 41.8353 -71.1775 63° Northeast 366 421 11,700 -1,320 Descending Boston Center
09:33AM 41.8825 -71.0639 61° Northeast 351 404 11,000 -360 Descending Boston Center
09:34AM 41.9339 -70.9425 60° Northeast 348 400 11,000  Level Boston Center
09:35AM 41.9831 -70.8297 60° Northeast 349 402 11,000 -300 Level Boston Center
09:36AM 42.0264 -70.7406 57° Northeast 333 383 10,500 -1,140 Descending Boston Center
09:37AM 42.0853 -70.6497 49° Northeast 326 375 8,700 -1,680 Descending Boston Center
09:38AM 42.1653 -70.5989 25° Northeast 326 375 7,200 -1,380 Descending Boston Center
09:39AM 42.2492 -70.5758 11° North 312 359 6,000 -1,140 Descending Boston Center
09:40AM 42.3461 -70.5819 357° North 305 351 5,000 -540 Descending Boston Center
09:41AM 42.4017 -70.6469 319° Northwest 282 325 5,000  Level Boston Center
09:42AM 42.4658 -70.7142 322° Northwest 280 322 5,000 -240 Level Boston Center
09:43AM 42.5258 -70.7781 322° Northwest 279 321 4,600 -420 Descending Boston Center
09:44AM 42.5858 -70.8369 324° Northwest 260 299 4,200 -300 Descending Boston Center
09:45AM 42.5756 -70.8928 256° West 162 186 4,000 -300 Descending Boston Center
09:46AM 42.5406 -70.9197 210° Southwest 145 167 3,600 -600 Descending Boston Center
09:47AM 42.5050 -70.9367 199° South 139 160 2,800 -780 Descending Boston Center
09:48AM 42.4700 -70.9544 201° Southwest 135 155 2,100 -780 Descending Boston Center
09:49AM 42.4325 -70.9731 200° South 142 163 1,300 -720 Descending Boston Center
09:50AM 42.4028 -70.9864 198° South 119 137 700 -360 Descending Boston Center
09:51AM 42.3731 -70.9986 197° South 119 137 600 -120 Descending Boston Center